Tullahoma, TN

8:43 PM CDT en Junio 24, 2017 (GMT -0500)
Tullahoma TN - Wilson Avenue | | Change Station

Alt 1070 ft 35.36 °N, 86.24 °W | Updated 44 minutes ago

Clear
Despejado
72.3 ° F
Sensación térmica 74 ° F
N
0.0
Viento Variable Viento desde Norte
Gusts 0.0 mph

Hoy
Alta -- | Baja -- ° F
--% Posibilidad de precipitaciones
Ayer
Alta -- | Baja -- ° F
Precip. -- pul
Presión 30.13 pul
Visibilidad 10.0 Millas
Nubes Despejado
Índice de calor 74 ° F
Punto de rocío 63 ° F
Humedad 72%
Precipitaciones 0.00 pul
Espesor de la nieve No disponible.
5:31 AM 8:03 PM
Luna nueva, 1% visible
METAR KTHA 250135Z AUTO 34005KT 10SM CLR 21/14 A3013 RMK
Presión 30.13 pul
Visibilidad 10.0 Millas
Nubes Despejado
Índice de calor 74 ° F
Punto de rocío 63 ° F
Humedad 72%
Precipitaciones 0.00 pul
Espesor de la nieve No disponible.
5:31 AM 8:03 PM
Luna nueva, 1% visible
METAR KTHA 250135Z AUTO 34005KT 10SM CLR 21/14 A3013 RMK

Get Severe Weather Alerts

Thanks for signing up!

Be on the lookout for a verification email in your inbox.

You'll start receiving the daily forecast at 6 AM.

×

10-Day Weather Forecast

Almanac

Astronomía

Jun. 24, 2017 Salida Puesta
Hora real
Crepúsculo civil
Crepúsculo náutico
Crepúsculo astronómico
Luna
Horas de luz
Horas de luz
Tomorrow will be .
, % of the Moon is Illuminated

Extremos de hoy

Máximos del estado Bajos del estado

Community

WunderPhotos

Category 6

Welcome to Category 6. This is the collective home for Weather Underground's featured writeups by Dr. Jeff Masters (right), Bob Henson (left), Chris Burt, and other regular contributors.

Nearby

Calidad del aire

  Calidad del aire Índice AQ Contaminante
Not available.

Grosos de nieve

Estación Profundido Altura

Actividad de terremotos

Ciudad Distance Mag. Tiempo y dato
Magnitud mínima muestra es 2,5.

Temperaturas de aguas costeras

Lugar Temperatura

Stations

Estaciones meteorológicas cercanas

Ubicación de la estación Temp. Vientos helados Punto de rocío Humedad Viento Precip. Alt Actualizado Tipo
                   

Watches & Warnings

There are currently no watches in effect.